sensor_id;sensor_type;location;lat;lon;timestamp;pressure;altitude;pressure_sealevel;temperature;humidity
12360;BME280;6244;51.460;7.090;2023-01-29T00:04:43;102040.34;;;1.33;65.27
12360;BME280;6244;51.460;7.090;2023-01-29T00:09:40;102037.75;;;1.30;65.44
12360;BME280;6244;51.460;7.090;2023-01-29T00:14:36;102038.59;;;1.31;65.12
12360;BME280;6244;51.460;7.090;2023-01-29T00:19:33;102023.94;;;1.28;65.31
12360;BME280;6244;51.460;7.090;2023-01-29T00:24:31;102020.47;;;1.26;65.05
12360;BME280;6244;51.460;7.090;2023-01-29T00:29:28;102015.28;;;1.25;65.30
12360;BME280;6244;51.460;7.090;2023-01-29T00:34:24;102017.88;;;1.25;65.43
12360;BME280;6244;51.460;7.090;2023-01-29T00:39:32;102020.41;;;1.22;65.51
12360;BME280;6244;51.460;7.090;2023-01-29T00:44:42;102010.03;;;1.17;65.45
12360;BME280;6244;51.460;7.090;2023-01-29T00:49:54;102012.63;;;1.17;65.53
12360;BME280;6244;51.460;7.090;2023-01-29T00:54:53;102013.50;;;1.17;65.46
12360;BME280;6244;51.460;7.090;2023-01-29T00:59:49;102021.22;;;1.14;65.53
12360;BME280;6244;51.460;7.090;2023-01-29T01:04:46;102028.09;;;1.12;65.29
12360;BME280;6244;51.460;7.090;2023-01-29T01:09:43;102036.69;;;1.11;65.52
12360;BME280;6244;51.460;7.090;2023-01-29T01:35:19;101978.06;;;1.09;65.41
12360;BME280;6244;51.460;7.090;2023-01-29T01:40:17;101986.69;;;1.08;65.56
12360;BME280;6244;51.460;7.090;2023-01-29T01:45:18;101979.78;;;1.05;65.66
12360;BME280;6244;51.460;7.090;2023-01-29T01:50:21;101975.47;;;1.04;65.49
12360;BME280;6244;51.460;7.090;2023-01-29T01:55:23;101984.06;;;1.03;65.30
12360;BME280;6244;51.460;7.090;2023-01-29T02:00:21;101995.25;;;1.02;65.46
12360;BME280;6244;51.460;7.090;2023-01-29T02:46:07;102001.97;;;0.86;65.67
12360;BME280;6244;51.460;7.090;2023-01-29T02:51:10;102010.66;;;0.90;65.78
12360;BME280;6244;51.460;7.090;2023-01-29T02:56:11;102003.75;;;0.89;65.49
12360;BME280;6244;51.460;7.090;2023-01-29T03:01:12;101995.94;;;0.86;65.81
12360;BME280;6244;51.460;7.090;2023-01-29T03:06:14;102004.56;;;0.86;65.70
12360;BME280;6244;51.460;7.090;2023-01-29T03:11:16;102009.72;;;0.85;65.67
12360;BME280;6244;51.460;7.090;2023-01-29T03:16:18;102003.66;;;0.83;65.37
12360;BME280;6244;51.460;7.090;2023-01-29T03:21:20;101995.03;;;0.81;65.62
12360;BME280;6244;51.460;7.090;2023-01-29T03:26:35;101993.31;;;0.80;65.36
12360;BME280;6244;51.460;7.090;2023-01-29T03:31:52;102001.03;;;0.77;65.51
12360;BME280;6244;51.460;7.090;2023-01-29T03:37:03;102004.47;;;0.76;65.59
12360;BME280;6244;51.460;7.090;2023-01-29T03:42:08;102003.56;;;0.74;65.46
12360;BME280;6244;51.460;7.090;2023-01-29T03:47:15;101990.63;;;0.74;65.38
12360;BME280;6244;51.460;7.090;2023-01-29T03:52:17;102002.69;;;0.73;65.23
12360;BME280;6244;51.460;7.090;2023-01-29T03:57:18;102000.09;;;0.73;65.05
12360;BME280;6244;51.460;7.090;2023-01-29T04:02:23;101997.50;;;0.72;65.06
12360;BME280;6244;51.460;7.090;2023-01-29T04:07:23;101999.22;;;0.71;65.38
12360;BME280;6244;51.460;7.090;2023-01-29T04:12:25;101994.91;;;0.70;65.46
12360;BME280;6244;51.460;7.090;2023-01-29T04:17:27;101986.31;;;0.70;65.54
12360;BME280;6244;51.460;7.090;2023-01-29T04:22:31;101973.38;;;0.70;65.76
12360;BME280;6244;51.460;7.090;2023-01-29T04:27:37;101969.09;;;0.72;65.37
12360;BME280;6244;51.460;7.090;2023-01-29T04:32:48;101944.13;;;0.71;65.29
12360;BME280;6244;51.460;7.090;2023-01-29T04:37:56;101963.91;;;0.69;65.53
12360;BME280;6244;51.460;7.090;2023-01-29T04:43:02;101968.22;;;0.70;65.42
12360;BME280;6244;51.460;7.090;2023-01-29T04:48:09;101941.53;;;0.69;65.20
12360;BME280;6244;51.460;7.090;2023-01-29T04:53:14;101946.69;;;0.69;65.45
12360;BME280;6244;51.460;7.090;2023-01-29T04:58:16;101938.06;;;0.69;65.74
12360;BME280;6244;51.460;7.090;2023-01-29T05:03:20;101943.25;;;0.69;65.38
12360;BME280;6244;51.460;7.090;2023-01-29T05:08:20;101934.63;;;0.68;65.32
12360;BME280;6244;51.460;7.090;2023-01-29T05:13:19;101931.16;;;0.66;65.76
12360;BME280;6244;51.460;7.090;2023-01-29T05:18:18;101911.38;;;0.67;65.61
12360;BME280;6244;51.460;7.090;2023-01-29T05:23:16;101898.47;;;0.68;65.67
12360;BME280;6244;51.460;7.090;2023-01-29T05:28:13;101896.75;;;0.69;65.45
12360;BME280;6244;51.460;7.090;2023-01-29T05:33:13;101894.16;;;0.70;65.33
12360;BME280;6244;51.460;7.090;2023-01-29T05:38:11;101895.88;;;0.70;65.89
12360;BME280;6244;51.460;7.090;2023-01-29T05:43:13;101895.03;;;0.71;65.45
12360;BME280;6244;51.460;7.090;2023-01-29T05:48:10;101895.03;;;0.71;66.01
12360;BME280;6244;51.460;7.090;2023-01-29T05:53:07;101902.78;;;0.71;65.83
12360;BME280;6244;51.460;7.090;2023-01-29T05:58:05;101913.13;;;0.72;65.91
12360;BME280;6244;51.460;7.090;2023-01-29T06:03:02;101917.44;;;0.72;65.62
12360;BME280;6244;51.460;7.090;2023-01-29T06:07:58;101926.06;;;0.74;65.67
12360;BME280;6244;51.460;7.090;2023-01-29T06:12:55;101935.56;;;0.75;65.32
12360;BME280;6244;51.460;7.090;2023-01-29T06:17:53;101943.31;;;0.75;65.90
12360;BME280;6244;51.460;7.090;2023-01-29T06:22:50;101953.66;;;0.75;65.95
12360;BME280;6244;51.460;7.090;2023-01-29T06:27:49;101953.66;;;0.76;65.78
12360;BME280;6244;51.460;7.090;2023-01-29T06:32:45;101953.66;;;0.76;65.30
12360;BME280;6244;51.460;7.090;2023-01-29T06:37:43;101950.22;;;0.77;65.60
12360;BME280;6244;51.460;7.090;2023-01-29T06:42:40;101941.63;;;0.77;65.52
12360;BME280;6244;51.460;7.090;2023-01-29T06:47:36;101936.44;;;0.77;65.71
12360;BME280;6244;51.460;7.090;2023-01-29T06:52:33;101945.94;;;0.78;65.47
12360;BME280;6244;51.460;7.090;2023-01-29T06:57:30;101933.88;;;0.78;65.95
12360;BME280;6244;51.460;7.090;2023-01-29T07:02:27;101922.69;;;0.79;65.76
12360;BME280;6244;51.460;7.090;2023-01-29T07:07:23;101927.84;;;0.79;65.60
12360;BME280;6244;51.460;7.090;2023-01-29T07:12:20;101932.16;;;0.79;65.70
12360;BME280;6244;51.460;7.090;2023-01-29T07:17:18;101938.19;;;0.78;66.00
12360;BME280;6244;51.460;7.090;2023-01-29T07:22:15;101932.16;;;0.79;65.97
12360;BME280;6244;51.460;7.090;2023-01-29T07:27:11;101927.00;;;0.79;66.00
12360;BME280;6244;51.460;7.090;2023-01-29T07:32:08;101925.28;;;0.79;65.87
12360;BME280;6244;51.460;7.090;2023-01-29T07:37:06;101933.88;;;0.80;66.18
12360;BME280;6244;51.460;7.090;2023-01-29T07:42:03;101932.16;;;0.80;66.21
12360;BME280;6244;51.460;7.090;2023-01-29T07:46:59;101930.44;;;0.81;66.27
12360;BME280;6244;51.460;7.090;2023-01-29T07:51:56;101915.81;;;0.83;65.86
12360;BME280;6244;51.460;7.090;2023-01-29T07:56:54;101922.72;;;0.84;66.28
12360;BME280;6244;51.460;7.090;2023-01-29T08:01:50;101918.41;;;0.86;66.23
12360;BME280;6244;51.460;7.090;2023-01-29T08:06:47;101914.13;;;0.86;66.39
12360;BME280;6244;51.460;7.090;2023-01-29T08:11:43;101930.53;;;0.88;66.41
12360;BME280;6244;51.460;7.090;2023-01-29T08:16:41;101922.78;;;0.88;66.26
12360;BME280;6244;51.460;7.090;2023-01-29T08:21:38;101920.19;;;0.90;66.19
12360;BME280;6244;51.460;7.090;2023-01-29T08:26:34;101914.19;;;0.93;66.16
12360;BME280;6244;51.460;7.090;2023-01-29T08:31:31;101909.03;;;0.93;66.09
12360;BME280;6244;51.460;7.090;2023-01-29T08:36:29;101909.88;;;0.93;66.31
12360;BME280;6244;51.460;7.090;2023-01-29T08:41:25;101902.13;;;0.92;66.25
12360;BME280;6244;51.460;7.090;2023-01-29T08:46:22;101896.09;;;0.93;66.33
12360;BME280;6244;51.460;7.090;2023-01-29T08:51:19;101888.38;;;0.96;66.10
12360;BME280;6244;51.460;7.090;2023-01-29T08:56:17;101885.78;;;0.94;66.49
12360;BME280;6244;51.460;7.090;2023-01-29T09:01:13;101893.53;;;0.96;66.44
12360;BME280;6244;51.460;7.090;2023-01-29T09:06:11;101890.94;;;0.94;66.51
12360;BME280;6244;51.460;7.090;2023-01-29T09:11:08;101882.31;;;0.95;66.42
12360;BME280;6244;51.460;7.090;2023-01-29T09:16:07;101882.34;;;0.97;66.35
12360;BME280;6244;51.460;7.090;2023-01-29T09:21:04;101865.97;;;0.98;66.31
12360;BME280;6244;51.460;7.090;2023-01-29T09:26:01;101859.13;;;1.00;66.48
12360;BME280;6244;51.460;7.090;2023-01-29T09:30:59;101846.22;;;1.00;66.03
12360;BME280;6244;51.460;7.090;2023-01-29T09:35:57;101842.78;;;1.04;66.30
12360;BME280;6244;51.460;7.090;2023-01-29T09:40:58;101844.50;;;1.02;66.05
12360;BME280;6244;51.460;7.090;2023-01-29T09:46:01;101847.09;;;1.05;66.32
12360;BME280;6244;51.460;7.090;2023-01-29T09:51:05;101849.69;;;1.08;65.95
12360;BME280;6244;51.460;7.090;2023-01-29T09:56:11;101844.53;;;1.08;66.23
12360;BME280;6244;51.460;7.090;2023-01-29T10:01:15;101845.38;;;1.10;66.49
12360;BME280;6244;51.460;7.090;2023-01-29T10:06:26;101851.41;;;1.07;66.21
12360;BME280;6244;51.460;7.090;2023-01-29T10:11:34;101844.53;;;1.09;66.54
12360;BME280;6244;51.460;7.090;2023-01-29T10:16:44;101853.16;;;1.10;66.26
12360;BME280;6244;51.460;7.090;2023-01-29T10:22:01;101853.16;;;1.11;66.01
12360;BME280;6244;51.460;7.090;2023-01-29T10:27:02;101846.28;;;1.12;66.14
12360;BME280;6244;51.460;7.090;2023-01-29T10:32:00;101835.97;;;1.12;66.13
12360;BME280;6244;51.460;7.090;2023-01-29T10:37:13;101833.38;;;1.15;66.43
12360;BME280;6244;51.460;7.090;2023-01-29T10:42:17;101817.88;;;1.16;66.55
12360;BME280;6244;51.460;7.090;2023-01-29T10:47:37;101817.88;;;1.15;66.12
12360;BME280;6244;51.460;7.090;2023-01-29T10:52:48;101809.25;;;1.19;66.11
12360;BME280;6244;51.460;7.090;2023-01-29T10:57:57;101809.25;;;1.19;66.47
12360;BME280;6244;51.460;7.090;2023-01-29T11:02:56;101805.88;;;1.25;66.11
12360;BME280;6244;51.460;7.090;2023-01-29T11:08:03;101786.06;;;1.25;66.23
12360;BME280;6244;51.460;7.090;2023-01-29T11:13:01;101789.50;;;1.27;66.28
12360;BME280;6244;51.460;7.090;2023-01-29T11:18:00;101776.59;;;1.32;66.18
12360;BME280;6244;51.460;7.090;2023-01-29T11:22:59;101761.06;;;1.33;66.41
12360;BME280;6244;51.460;7.090;2023-01-29T11:27:57;101764.53;;;1.34;66.15
12360;BME280;6244;51.460;7.090;2023-01-29T11:33:04;101757.63;;;1.33;66.38
12360;BME280;6244;51.460;7.090;2023-01-29T11:38:12;101751.63;;;1.37;65.81
12360;BME280;6244;51.460;7.090;2023-01-29T11:43:22;101749.91;;;1.37;65.77
12360;BME280;6244;51.460;7.090;2023-01-29T11:48:29;101743.00;;;1.39;65.92
12360;BME280;6244;51.460;7.090;2023-01-29T11:53:36;101733.53;;;1.38;66.03
12360;BME280;6244;51.460;7.090;2023-01-29T11:58:34;101717.16;;;1.41;65.94
12360;BME280;6244;51.460;7.090;2023-01-29T12:03:34;101707.69;;;1.40;65.81
12360;BME280;6244;51.460;7.090;2023-01-29T12:08:37;101695.59;;;1.40;65.75
12360;BME280;6244;51.460;7.090;2023-01-29T12:13:34;101677.50;;;1.37;65.75
12360;BME280;6244;51.460;7.090;2023-01-29T12:18:35;101660.25;;;1.39;65.88
12360;BME280;6244;51.460;7.090;2023-01-29T12:23:40;101637.00;;;1.41;65.98
12360;BME280;6244;51.460;7.090;2023-01-29T12:28:45;101629.22;;;1.42;65.90
12360;BME280;6244;51.460;7.090;2023-01-29T12:33:50;101607.69;;;1.46;65.68
12360;BME280;6244;51.460;7.090;2023-01-29T12:38:49;101596.47;;;1.43;65.63
12360;BME280;6244;51.460;7.090;2023-01-29T12:43:48;101598.19;;;1.44;66.05
12360;BME280;6244;51.460;7.090;2023-01-29T12:48:48;101587.84;;;1.44;66.13
12360;BME280;6244;51.460;7.090;2023-01-29T12:53:51;101593.03;;;1.47;65.89
12360;BME280;6244;51.460;7.090;2023-01-29T12:58:51;101591.31;;;1.49;65.66
12360;BME280;6244;51.460;7.090;2023-01-29T13:03:52;101580.13;;;1.50;65.67
12360;BME280;6244;51.460;7.090;2023-01-29T13:08:54;101583.56;;;1.52;65.84
12360;BME280;6244;51.460;7.090;2023-01-29T13:13:56;101579.25;;;1.56;65.42
12360;BME280;6244;51.460;7.090;2023-01-29T13:18:57;101574.06;;;1.54;65.56
12360;BME280;6244;51.460;7.090;2023-01-29T13:24:01;101574.06;;;1.57;65.73
12360;BME280;6244;51.460;7.090;2023-01-29T13:28:58;101574.94;;;1.58;65.25
12360;BME280;6244;51.460;7.090;2023-01-29T13:34:07;101574.09;;;1.62;65.34
12360;BME280;6244;51.460;7.090;2023-01-29T13:39:18;101568.06;;;1.61;65.13
12360;BME280;6244;51.460;7.090;2023-01-29T13:44:21;101570.63;;;1.64;65.43
12360;BME280;6244;51.460;7.090;2023-01-29T13:49:28;101580.13;;;1.62;65.65
12360;BME280;6244;51.460;7.090;2023-01-29T13:54:28;101579.25;;;1.65;65.24
12360;BME280;6244;51.460;7.090;2023-01-29T13:59:47;101576.69;;;1.62;65.29
12360;BME280;6244;51.460;7.090;2023-01-29T14:04:44;101561.13;;;1.60;65.66
12360;BME280;6244;51.460;7.090;2023-01-29T14:15:13;101552.53;;;1.61;65.86
12360;BME280;6244;51.460;7.090;2023-01-29T14:20:16;101543.91;;;1.64;65.86
12360;BME280;6244;51.460;7.090;2023-01-29T14:25:22;101538.75;;;1.64;66.08
12360;BME280;6244;51.460;7.090;2023-01-29T14:30:27;101544.78;;;1.64;65.88
12360;BME280;6244;51.460;7.090;2023-01-29T14:35:27;101538.72;;;1.67;66.12
12360;BME280;6244;51.460;7.090;2023-01-29T14:40:28;101534.41;;;1.70;66.06
12360;BME280;6244;51.460;7.090;2023-01-29T14:45:29;101534.41;;;1.73;66.20
12360;BME280;6244;51.460;7.090;2023-01-29T14:50:41;101535.25;;;1.72;66.26
12360;BME280;6244;51.460;7.090;2023-01-29T14:55:40;101521.47;;;1.75;66.12
12360;BME280;6244;51.460;7.090;2023-01-29T15:00:43;101512.00;;;1.75;65.89
12360;BME280;6244;51.460;7.090;2023-01-29T15:05:41;101517.16;;;1.75;66.26
12360;BME280;6244;51.460;7.090;2023-01-29T15:10:41;101516.28;;;1.72;66.10
12360;BME280;6244;51.460;7.090;2023-01-29T15:15:43;101510.28;;;1.74;66.25
12360;BME280;6244;51.460;7.090;2023-01-29T15:20:42;101506.81;;;1.75;66.26
12360;BME280;6244;51.460;7.090;2023-01-29T15:25:47;101503.38;;;1.75;66.26
12360;BME280;6244;51.460;7.090;2023-01-29T15:30:50;101496.47;;;1.79;66.17
12360;BME280;6244;51.460;7.090;2023-01-29T15:35:54;101493.03;;;1.75;66.23
12360;BME280;6244;51.460;7.090;2023-01-29T15:40:52;101492.16;;;1.70;66.32
12360;BME280;6244;51.460;7.090;2023-01-29T15:45:52;101492.16;;;1.76;66.32
12360;BME280;6244;51.460;7.090;2023-01-29T15:50:52;101491.28;;;1.75;66.35
12360;BME280;6244;51.460;7.090;2023-01-29T15:55:49;101493.00;;;1.76;66.59
12360;BME280;6244;51.460;7.090;2023-01-29T16:00:49;101485.25;;;1.78;66.41
12360;BME280;6244;51.460;7.090;2023-01-29T16:05:48;101473.16;;;1.79;66.57
12360;BME280;6244;51.460;7.090;2023-01-29T16:10:46;101472.31;;;1.80;66.60
12360;BME280;6244;51.460;7.090;2023-01-29T16:15:53;101466.25;;;1.81;66.81
12360;BME280;6244;51.460;7.090;2023-01-29T16:20:53;101455.91;;;1.81;66.80
12360;BME280;6244;51.460;7.090;2023-01-29T16:25:50;101442.97;;;1.82;66.42
12360;BME280;6244;51.460;7.090;2023-01-29T16:30:53;101439.53;;;1.82;66.83
12360;BME280;6244;51.460;7.090;2023-01-29T16:35:51;101435.19;;;1.85;66.79
12360;BME280;6244;51.460;7.090;2023-01-29T16:41:07;101417.97;;;1.80;66.69
12360;BME280;6244;51.460;7.090;2023-01-29T16:46:17;101421.41;;;1.82;66.81
12360;BME280;6244;51.460;7.090;2023-01-29T16:51:21;101427.44;;;1.84;66.99
12360;BME280;6244;51.460;7.090;2023-01-29T16:56:20;101426.59;;;1.86;67.22
12360;BME280;6244;51.460;7.090;2023-01-29T17:01:19;101415.34;;;1.86;67.10
12360;BME280;6244;51.460;7.090;2023-01-29T17:06:21;101405.88;;;1.88;66.88
12360;BME280;6244;51.460;7.090;2023-01-29T17:11:25;101415.34;;;1.86;67.20
12360;BME280;6244;51.460;7.090;2023-01-29T17:16:26;101402.44;;;1.87;67.28
12360;BME280;6244;51.460;7.090;2023-01-29T17:21:33;101400.69;;;1.85;67.25
12360;BME280;6244;51.460;7.090;2023-01-29T17:26:34;101405.00;;;1.86;67.32
12360;BME280;6244;51.460;7.090;2023-01-29T17:31:30;101401.56;;;1.87;67.41
12360;BME280;6244;51.460;7.090;2023-01-29T17:36:27;101394.66;;;1.87;67.35
12360;BME280;6244;51.460;7.090;2023-01-29T17:41:26;101392.06;;;1.89;67.43
12360;BME280;6244;51.460;7.090;2023-01-29T17:46:23;101394.66;;;1.90;67.52
12360;BME280;6244;51.460;7.090;2023-01-29T17:51:20;101380.84;;;1.91;67.49
12360;BME280;6244;51.460;7.090;2023-01-29T17:56:19;101378.25;;;1.90;67.65
12360;BME280;6244;51.460;7.090;2023-01-29T18:01:19;101382.56;;;1.92;67.48
12360;BME280;6244;51.460;7.090;2023-01-29T18:06:24;101367.91;;;1.90;67.52
12360;BME280;6244;51.460;7.090;2023-01-29T18:11:21;101354.97;;;1.84;67.87
12360;BME280;6244;51.460;7.090;2023-01-29T18:16:27;101314.50;;;1.69;68.08
12360;BME280;6244;51.460;7.090;2023-01-29T18:21:25;101331.66;;;1.94;68.29
12360;BME280;6244;51.460;7.090;2023-01-29T18:26:22;101307.56;;;1.82;68.33
12360;BME280;6244;51.460;7.090;2023-01-29T18:31:20;101314.44;;;1.87;68.29
12360;BME280;6244;51.460;7.090;2023-01-29T18:36:16;101329.06;;;1.93;68.43
12360;BME280;6244;51.460;7.090;2023-01-29T18:41:18;101322.16;;;1.93;68.66
12360;BME280;6244;51.460;7.090;2023-01-29T18:46:15;101315.28;;;1.91;68.49
12360;BME280;6244;51.460;7.090;2023-01-29T18:51:23;101315.22;;;1.97;68.64
12360;BME280;6244;51.460;7.090;2023-01-29T18:56:22;101268.75;;;1.79;68.79
12360;BME280;6244;51.460;7.090;2023-01-29T19:01:21;101254.97;;;1.76;68.88
12360;BME280;6244;51.460;7.090;2023-01-29T19:06:18;101292.81;;;1.97;69.10
12360;BME280;6244;51.460;7.090;2023-01-29T19:11:20;101262.69;;;1.89;69.08
12360;BME280;6244;51.460;7.090;2023-01-29T19:16:17;101257.53;;;1.83;69.17
12360;BME280;6244;51.460;7.090;2023-01-29T19:21:15;101262.69;;;1.89;69.62
12360;BME280;6244;51.460;7.090;2023-01-29T19:26:12;101248.03;;;1.86;69.74
12360;BME280;6244;51.460;7.090;2023-01-29T19:31:11;101237.72;;;1.79;69.60
12360;BME280;6244;51.460;7.090;2023-01-29T19:36:08;101235.94;;;1.85;70.18
12360;BME280;6244;51.460;7.090;2023-01-29T19:41:09;101193.75;;;1.75;69.97
12360;BME280;6244;51.460;7.090;2023-01-29T19:46:06;101216.06;;;1.93;70.23
12360;BME280;6244;51.460;7.090;2023-01-29T19:51:07;101183.38;;;1.80;69.96
12360;BME280;6244;51.460;7.090;2023-01-29T19:56:08;101175.59;;;1.80;70.20
12360;BME280;6244;51.460;7.090;2023-01-29T20:01:17;101171.28;;;1.82;70.13
12360;BME280;6244;51.460;7.090;2023-01-29T20:06:24;101149.75;;;1.80;70.04
12360;BME280;6244;51.460;7.090;2023-01-29T20:11:24;101144.63;;;1.74;70.12
12360;BME280;6244;51.460;7.090;2023-01-29T20:16:21;101158.22;;;1.96;70.13
12360;BME280;6244;51.460;7.090;2023-01-29T20:21:19;101119.50;;;1.87;70.14
12360;BME280;6244;51.460;7.090;2023-01-29T20:26:20;101105.72;;;1.86;70.37
12360;BME280;6244;51.460;7.090;2023-01-29T20:31:17;101095.38;;;1.82;70.33
12360;BME280;6244;51.460;7.090;2023-01-29T20:36:13;101114.28;;;1.93;70.26
12360;BME280;6244;51.460;7.090;2023-01-29T20:41:14;101068.69;;;1.80;70.41
12360;BME280;6244;51.460;7.090;2023-01-29T20:46:18;101073.00;;;1.77;70.65
12360;BME280;6244;51.460;7.090;2023-01-29T20:51:32;101098.75;;;1.93;70.91
12360;BME280;6244;51.460;7.090;2023-01-29T20:56:32;101080.78;;;1.77;71.26
12360;BME280;6244;51.460;7.090;2023-01-29T21:01:33;101072.16;;;1.77;71.14
12360;BME280;6244;51.460;7.090;2023-01-29T21:06:42;101074.66;;;1.85;71.40
12360;BME280;6244;51.460;7.090;2023-01-29T21:11:43;101096.22;;;1.85;71.09
12360;BME280;6244;51.460;7.090;2023-01-29T21:16:44;101097.00;;;1.95;71.40
12360;BME280;6244;51.460;7.090;2023-01-29T21:21:41;101106.47;;;2.00;71.62
12360;BME280;6244;51.460;7.090;2023-01-29T21:26:38;101063.34;;;1.96;71.72
12360;BME280;6244;51.460;7.090;2023-01-29T21:31:37;101074.53;;;1.97;72.26
12360;BME280;6244;51.460;7.090;2023-01-29T21:36:36;101068.63;;;1.84;71.87
12360;BME280;6244;51.460;7.090;2023-01-29T21:41:36;101090.06;;;1.97;72.12
12360;BME280;6244;51.460;7.090;2023-01-29T21:46:50;101100.34;;;2.08;72.59
12360;BME280;6244;51.460;7.090;2023-01-29T21:51:49;101089.22;;;1.99;72.54
12360;BME280;6244;51.460;7.090;2023-01-29T21:56:48;101107.25;;;2.07;72.53
12360;BME280;6244;51.460;7.090;2023-01-29T22:01:44;101122.72;;;2.15;72.67
12360;BME280;6244;51.460;7.090;2023-01-29T22:06:50;101085.66;;;2.08;73.02
12360;BME280;6244;51.460;7.090;2023-01-29T22:11:47;101067.56;;;2.05;73.14
12360;BME280;6244;51.460;7.090;2023-01-29T22:16:50;101089.94;;;2.11;73.19
12360;BME280;6244;51.460;7.090;2023-01-29T22:22:02;101094.25;;;2.15;73.62
12360;BME280;6244;51.460;7.090;2023-01-29T22:26:59;101071.00;;;2.09;74.01
12360;BME280;6244;51.460;7.090;2023-01-29T22:31:57;101072.59;;;2.20;74.06
12360;BME280;6244;51.460;7.090;2023-01-29T22:36:54;101080.34;;;2.23;74.18
12360;BME280;6244;51.460;7.090;2023-01-29T22:41:52;101072.59;;;2.22;74.46
12360;BME280;6244;51.460;7.090;2023-01-29T22:46:49;101077.69;;;2.29;74.70
12360;BME280;6244;51.460;7.090;2023-01-29T22:51:46;101050.13;;;2.25;74.96
12360;BME280;6244;51.460;7.090;2023-01-29T22:57:04;101030.22;;;2.30;74.97
12360;BME280;6244;51.460;7.090;2023-01-29T23:02:01;101003.41;;;2.33;75.23
12360;BME280;6244;51.460;7.090;2023-01-29T23:06:58;100970.63;;;2.32;75.44
12360;BME280;6244;51.460;7.090;2023-01-29T23:11:54;100935.19;;;2.37;75.29
12360;BME280;6244;51.460;7.090;2023-01-29T23:16:52;100901.53;;;2.37;75.46
12360;BME280;6244;51.460;7.090;2023-01-29T23:21:49;100903.25;;;2.37;75.87
12360;BME280;6244;51.460;7.090;2023-01-29T23:26:45;100959.34;;;2.38;75.96
12360;BME280;6244;51.460;7.090;2023-01-29T23:32:01;100954.09;;;2.42;76.00
12360;BME280;6244;51.460;7.090;2023-01-29T23:36:58;100946.31;;;2.44;76.17
12360;BME280;6244;51.460;7.090;2023-01-29T23:41:55;100898.09;;;2.37;76.34
12360;BME280;6244;51.460;7.090;2023-01-29T23:46:51;100922.06;;;2.51;76.58
12360;BME280;6244;51.460;7.090;2023-01-29T23:51:49;100907.34;;;2.53;76.52
12360;BME280;6244;51.460;7.090;2023-01-29T23:56:46;100873.75;;;2.48;76.89
